sensor_id;sensor_type;location;lat;lon;timestamp;pressure;altitude;pressure_sealevel;temperature;humidity
59939;BME280;45801;51.810;19.444;2023-04-01T00:00:20;97210.55;;;10.58;77.76
59939;BME280;45801;51.810;19.444;2023-04-01T00:03:07;97213.18;;;10.58;77.68
59939;BME280;45801;51.810;19.444;2023-04-01T00:05:34;97213.36;;;10.59;77.45
59939;BME280;45801;51.810;19.444;2023-04-01T00:08:01;97212.29;;;10.57;77.80
59939;BME280;45801;51.810;19.444;2023-04-01T00:10:27;97210.31;;;10.52;78.13
59939;BME280;45801;51.810;19.444;2023-04-01T00:12:54;97210.91;;;10.41;78.46
59939;BME280;45801;51.810;19.444;2023-04-01T00:15:21;97213.68;;;10.40;78.29
59939;BME280;45801;51.810;19.444;2023-04-01T00:17:47;97210.84;;;10.36;78.52
59939;BME280;45801;51.810;19.444;2023-04-01T00:20:14;97207.68;;;10.36;77.99
59939;BME280;45801;51.810;19.444;2023-04-01T00:22:41;97206.50;;;10.40;77.72
59939;BME280;45801;51.810;19.444;2023-04-01T00:25:07;97208.80;;;10.42;78.17
59939;BME280;45801;51.810;19.444;2023-04-01T00:27:34;97207.77;;;10.43;78.40
59939;BME280;45801;51.810;19.444;2023-04-01T00:30:01;97211.81;;;10.45;78.28
59939;BME280;45801;51.810;19.444;2023-04-01T00:32:28;97209.73;;;10.46;78.19
59939;BME280;45801;51.810;19.444;2023-04-01T00:34:56;97207.12;;;10.49;77.99
59939;BME280;45801;51.810;19.444;2023-04-01T00:37:26;97211.67;;;10.49;78.34
59939;BME280;45801;51.810;19.444;2023-04-01T00:39:53;97210.12;;;10.50;78.07
59939;BME280;45801;51.810;19.444;2023-04-01T00:42:20;97210.84;;;10.52;77.95
59939;BME280;45801;51.810;19.444;2023-04-01T00:44:53;97211.55;;;10.52;78.05
59939;BME280;45801;51.810;19.444;2023-04-01T00:47:20;97211.91;;;10.54;77.87
59939;BME280;45801;51.810;19.444;2023-04-01T00:49:51;97210.80;;;10.50;78.34
59939;BME280;45801;51.810;19.444;2023-04-01T00:52:22;97212.04;;;10.50;78.05
59939;BME280;45801;51.810;19.444;2023-04-01T00:54:57;97211.02;;;10.53;77.67
59939;BME280;45801;51.810;19.444;2023-04-01T00:57:31;97207.20;;;10.55;77.57
59939;BME280;45801;51.810;19.444;2023-04-01T00:59:58;97200.55;;;10.56;77.50
59939;BME280;45801;51.810;19.444;2023-04-01T01:02:25;97198.81;;;10.57;77.09
59939;BME280;45801;51.810;19.444;2023-04-01T01:04:52;97196.52;;;10.56;77.46
59939;BME280;45801;51.810;19.444;2023-04-01T01:07:36;97191.98;;;10.56;77.43
59939;BME280;45801;51.810;19.444;2023-04-01T01:10:52;97188.33;;;10.57;77.42
59939;BME280;45801;51.810;19.444;2023-04-01T01:16:25;97182.83;;;10.52;78.19
59939;BME280;45801;51.810;19.444;2023-04-01T01:24:39;97171.66;;;10.54;77.63
59939;BME280;45801;51.810;19.444;2023-04-01T01:27:16;97171.84;;;10.55;77.45
59939;BME280;45801;51.810;19.444;2023-04-01T01:35:25;97186.98;;;10.49;77.79
59939;BME280;45801;51.810;19.444;2023-04-01T01:37:59;97188.23;;;10.49;77.64
59939;BME280;45801;51.810;19.444;2023-04-01T01:40:27;97187.33;;;10.46;77.84
59939;BME280;45801;51.810;19.444;2023-04-01T01:42:59;97185.18;;;10.42;77.68
59939;BME280;45801;51.810;19.444;2023-04-01T01:45:27;97180.28;;;10.42;77.66
59939;BME280;45801;51.810;19.444;2023-04-01T01:47:56;97181.00;;;10.43;77.65
59939;BME280;45801;51.810;19.444;2023-04-01T01:50:25;97180.43;;;10.40;78.27
59939;BME280;45801;51.810;19.444;2023-04-01T01:53:05;97179.45;;;10.33;78.78
59939;BME280;45801;51.810;19.444;2023-04-01T01:55:35;97176.27;;;10.31;78.28
59939;BME280;45801;51.810;19.444;2023-04-01T01:58:28;97179.75;;;10.30;78.36
59939;BME280;45801;51.810;19.444;2023-04-01T02:00:57;97178.45;;;10.22;78.88
59939;BME280;45801;51.810;19.444;2023-04-01T02:03:27;97174.92;;;10.20;78.73
59939;BME280;45801;51.810;19.444;2023-04-01T02:05:57;97171.52;;;10.12;79.55
59939;BME280;45801;51.810;19.444;2023-04-01T02:08:40;97168.75;;;10.01;80.09
59939;BME280;45801;51.810;19.444;2023-04-01T02:11:10;97169.23;;;9.98;79.84
59939;BME280;45801;51.810;19.444;2023-04-01T02:14:01;97171.13;;;9.95;79.59
59939;BME280;45801;51.810;19.444;2023-04-01T02:16:36;97171.34;;;9.98;79.51
59939;BME280;45801;51.810;19.444;2023-04-01T02:19:03;97173.59;;;9.97;79.57
59939;BME280;45801;51.810;19.444;2023-04-01T02:21:34;97172.64;;;9.91;79.85
59939;BME280;45801;51.810;19.444;2023-04-01T02:24:04;97173.50;;;9.90;79.92
59939;BME280;45801;51.810;19.444;2023-04-01T02:26:32;97170.39;;;9.93;79.39
59939;BME280;45801;51.810;19.444;2023-04-01T02:28:59;97169.34;;;9.93;79.63
59939;BME280;45801;51.810;19.444;2023-04-01T02:31:27;97169.85;;;9.92;79.40
59939;BME280;45801;51.810;19.444;2023-04-01T02:33:54;97168.94;;;9.88;79.36
59939;BME280;45801;51.810;19.444;2023-04-01T02:36:21;97174.02;;;9.76;79.95
59939;BME280;45801;51.810;19.444;2023-04-01T02:38:48;97175.71;;;9.72;79.67
59939;BME280;45801;51.810;19.444;2023-04-01T02:41:16;97176.08;;;9.72;79.45
59939;BME280;45801;51.810;19.444;2023-04-01T02:43:42;97174.52;;;9.75;79.40
59939;BME280;45801;51.810;19.444;2023-04-01T02:46:09;97180.60;;;9.71;79.61
59939;BME280;45801;51.810;19.444;2023-04-01T02:48:35;97185.06;;;9.65;80.03
59939;BME280;45801;51.810;19.444;2023-04-01T02:51:02;97180.86;;;9.64;79.75
59939;BME280;45801;51.810;19.444;2023-04-01T02:53:29;97179.40;;;9.60;79.92
59939;BME280;45801;51.810;19.444;2023-04-01T02:55:56;97181.30;;;9.60;79.47
59939;BME280;45801;51.810;19.444;2023-04-01T02:58:22;97182.54;;;9.59;79.39
59939;BME280;45801;51.810;19.444;2023-04-01T03:00:49;97183.48;;;9.53;79.81
59939;BME280;45801;51.810;19.444;2023-04-01T03:03:16;97184.70;;;9.52;79.59
59939;BME280;45801;51.810;19.444;2023-04-01T03:05:42;97187.14;;;9.52;79.58
59939;BME280;45801;51.810;19.444;2023-04-01T03:08:09;97187.70;;;9.54;79.40
59939;BME280;45801;51.810;19.444;2023-04-01T03:10:37;97185.31;;;9.58;79.04
59939;BME280;45801;51.810;19.444;2023-04-01T03:13:04;97187.05;;;9.57;79.28
59939;BME280;45801;51.810;19.444;2023-04-01T03:15:30;97189.08;;;9.51;79.64
59939;BME280;45801;51.810;19.444;2023-04-01T03:17:57;97192.48;;;9.47;79.71
59939;BME280;45801;51.810;19.444;2023-04-01T03:20:24;97197.80;;;9.40;80.09
59939;BME280;45801;51.810;19.444;2023-04-01T03:22:50;97196.88;;;9.37;79.97
59939;BME280;45801;51.810;19.444;2023-04-01T03:25:17;97195.11;;;9.35;79.98
59939;BME280;45801;51.810;19.444;2023-04-01T03:27:44;97199.20;;;9.39;79.60
59939;BME280;45801;51.810;19.444;2023-04-01T03:30:11;97198.47;;;9.37;79.90
59939;BME280;45801;51.810;19.444;2023-04-01T03:32:37;97199.58;;;9.30;79.99
59939;BME280;45801;51.810;19.444;2023-04-01T03:35:04;97198.89;;;9.30;79.48
59939;BME280;45801;51.810;19.444;2023-04-01T03:37:31;97201.52;;;9.31;79.40
59939;BME280;45801;51.810;19.444;2023-04-01T03:39:58;97200.61;;;9.29;79.55
59939;BME280;45801;51.810;19.444;2023-04-01T03:42:24;97201.11;;;9.27;79.72
59939;BME280;45801;51.810;19.444;2023-04-01T03:44:51;97200.64;;;9.30;79.51
59939;BME280;45801;51.810;19.444;2023-04-01T03:47:18;97206.04;;;9.30;79.54
59939;BME280;45801;51.810;19.444;2023-04-01T03:49:44;97214.61;;;9.30;79.49
59939;BME280;45801;51.810;19.444;2023-04-01T03:52:11;97214.24;;;9.29;79.40
59939;BME280;45801;51.810;19.444;2023-04-01T03:54:37;97215.16;;;9.32;78.96
59939;BME280;45801;51.810;19.444;2023-04-01T03:57:04;97210.97;;;9.32;78.89
59939;BME280;45801;51.810;19.444;2023-04-01T03:59:32;97214.25;;;9.29;79.13
59939;BME280;45801;51.810;19.444;2023-04-01T04:01:58;97216.94;;;9.23;79.59
59939;BME280;45801;51.810;19.444;2023-04-01T04:04:25;97219.66;;;9.18;79.97
59939;BME280;45801;51.810;19.444;2023-04-01T04:06:54;97223.33;;;9.18;79.93
59939;BME280;45801;51.810;19.444;2023-04-01T04:09:20;97222.17;;;9.23;79.45
59939;BME280;45801;51.810;19.444;2023-04-01T04:11:47;97219.48;;;9.29;78.92
59939;BME280;45801;51.810;19.444;2023-04-01T04:14:14;97218.83;;;9.32;78.95
59939;BME280;45801;51.810;19.444;2023-04-01T04:16:40;97224.63;;;9.35;78.75
59939;BME280;45801;51.810;19.444;2023-04-01T04:19:07;97222.58;;;9.37;78.71
59939;BME280;45801;51.810;19.444;2023-04-01T04:21:33;97226.81;;;9.40;78.31
59939;BME280;45801;51.810;19.444;2023-04-01T04:24:01;97225.06;;;9.40;78.24
59939;BME280;45801;51.810;19.444;2023-04-01T04:26:28;97228.90;;;9.39;78.23
59939;BME280;45801;51.810;19.444;2023-04-01T04:28:54;97233.20;;;9.35;78.29
59939;BME280;45801;51.810;19.444;2023-04-01T04:31:23;97231.69;;;9.28;78.43
59939;BME280;45801;51.810;19.444;2023-04-01T04:33:51;97230.34;;;9.20;78.72
59939;BME280;45801;51.810;19.444;2023-04-01T04:36:18;97229.39;;;9.15;78.80
59939;BME280;45801;51.810;19.444;2023-04-01T04:38:46;97232.22;;;9.17;78.67
59939;BME280;45801;51.810;19.444;2023-04-01T04:41:15;97228.92;;;9.19;78.74
59939;BME280;45801;51.810;19.444;2023-04-01T04:43:50;97228.94;;;9.20;78.58
59939;BME280;45801;51.810;19.444;2023-04-01T04:46:17;97229.17;;;9.13;78.91
59939;BME280;45801;51.810;19.444;2023-04-01T04:48:44;97226.89;;;9.12;78.83
59939;BME280;45801;51.810;19.444;2023-04-01T04:51:17;97223.83;;;9.06;79.04
59939;BME280;45801;51.810;19.444;2023-04-01T04:53:44;97221.06;;;9.08;78.91
59939;BME280;45801;51.810;19.444;2023-04-01T04:56:12;97225.16;;;9.13;78.68
59939;BME280;45801;51.810;19.444;2023-04-01T04:58:39;97232.26;;;9.20;78.23
59939;BME280;45801;51.810;19.444;2023-04-01T05:01:10;97231.27;;;9.24;78.27
59939;BME280;45801;51.810;19.444;2023-04-01T05:03:38;97229.63;;;9.30;78.06
59939;BME280;45801;51.810;19.444;2023-04-01T05:06:05;97226.90;;;9.35;78.16
59939;BME280;45801;51.810;19.444;2023-04-01T05:08:33;97229.87;;;9.35;78.02
59939;BME280;45801;51.810;19.444;2023-04-01T05:11:01;97232.52;;;9.36;78.05
59939;BME280;45801;51.810;19.444;2023-04-01T05:13:28;97232.00;;;9.36;77.88
59939;BME280;45801;51.810;19.444;2023-04-01T05:15:55;97235.88;;;9.38;77.97
59939;BME280;45801;51.810;19.444;2023-04-01T05:18:22;97234.14;;;9.39;78.13
59939;BME280;45801;51.810;19.444;2023-04-01T05:20:51;97231.92;;;9.44;77.76
59939;BME280;45801;51.810;19.444;2023-04-01T05:23:18;97232.48;;;9.45;77.76
59939;BME280;45801;51.810;19.444;2023-04-01T05:25:50;97231.56;;;9.42;77.95
59939;BME280;45801;51.810;19.444;2023-04-01T05:28:19;97234.32;;;9.40;78.13
59939;BME280;45801;51.810;19.444;2023-04-01T05:30:46;97232.67;;;9.35;78.09
59939;BME280;45801;51.810;19.444;2023-04-01T05:33:13;97228.84;;;9.36;77.96
59939;BME280;45801;51.810;19.444;2023-04-01T05:35:40;97232.20;;;9.38;78.01
59939;BME280;45801;51.810;19.444;2023-04-01T05:38:06;97230.08;;;9.37;78.13
59939;BME280;45801;51.810;19.444;2023-04-01T05:40:33;97233.30;;;9.30;78.54
59939;BME280;45801;51.810;19.444;2023-04-01T05:42:59;97233.66;;;9.32;78.14
59939;BME280;45801;51.810;19.444;2023-04-01T05:45:27;97233.45;;;9.29;78.16
59939;BME280;45801;51.810;19.444;2023-04-01T05:47:53;97232.36;;;9.26;78.18
59939;BME280;45801;51.810;19.444;2023-04-01T05:50:20;97233.32;;;9.21;78.62
59939;BME280;45801;51.810;19.444;2023-04-01T05:52:46;97236.80;;;9.20;78.75
59939;BME280;45801;51.810;19.444;2023-04-01T05:55:13;97238.31;;;9.16;78.96
59939;BME280;45801;51.810;19.444;2023-04-01T05:57:39;97238.98;;;9.16;78.72
59939;BME280;45801;51.810;19.444;2023-04-01T06:00:06;97235.25;;;9.11;79.21
59939;BME280;45801;51.810;19.444;2023-04-01T06:02:33;97234.85;;;9.09;79.42
59939;BME280;45801;51.810;19.444;2023-04-01T06:05:13;97235.06;;;9.10;79.72
59939;BME280;45801;51.810;19.444;2023-04-01T06:07:40;97232.63;;;9.11;79.80
59939;BME280;45801;51.810;19.444;2023-04-01T06:10:16;97230.23;;;9.13;79.77
59939;BME280;45801;51.810;19.444;2023-04-01T06:13:00;97229.41;;;9.17;79.98
59939;BME280;45801;51.810;19.444;2023-04-01T06:21:36;97232.86;;;9.25;79.37
59939;BME280;45801;51.810;19.444;2023-04-01T06:26:59;97237.08;;;9.16;80.28
59939;BME280;45801;51.810;19.444;2023-04-01T06:32:32;97243.91;;;9.27;79.57
59939;BME280;45801;51.810;19.444;2023-04-01T06:38:34;97243.30;;;9.33;79.70
59939;BME280;45801;51.810;19.444;2023-04-01T06:41:32;97241.48;;;9.28;80.18
59939;BME280;45801;51.810;19.444;2023-04-01T06:44:24;97239.84;;;9.35;79.76
59939;BME280;45801;51.810;19.444;2023-04-01T06:46:55;97240.82;;;9.43;79.39
59939;BME280;45801;51.810;19.444;2023-04-01T06:52:50;97241.60;;;9.47;79.41
59939;BME280;45801;51.810;19.444;2023-04-01T06:58:04;97244.41;;;9.59;78.48
59939;BME280;45801;51.810;19.444;2023-04-01T07:00:39;97242.63;;;9.58;78.61
59939;BME280;45801;51.810;19.444;2023-04-01T07:05:48;97247.88;;;9.58;78.93
59939;BME280;45801;51.810;19.444;2023-04-01T07:08:23;97248.95;;;9.60;78.67
59939;BME280;45801;51.810;19.444;2023-04-01T07:13:26;97253.70;;;9.61;78.46
59939;BME280;45801;51.810;19.444;2023-04-01T07:15:59;97253.44;;;9.66;78.68
59939;BME280;45801;51.810;19.444;2023-04-01T07:18:54;97251.64;;;9.63;78.74
59939;BME280;45801;51.810;19.444;2023-04-01T07:21:33;97254.46;;;9.65;78.62
59939;BME280;45801;51.810;19.444;2023-04-01T07:24:36;97255.57;;;9.58;79.32
59939;BME280;45801;51.810;19.444;2023-04-01T07:27:08;97252.34;;;9.64;79.29
59939;BME280;45801;51.810;19.444;2023-04-01T07:29:35;97252.40;;;9.68;78.94
59939;BME280;45801;51.810;19.444;2023-04-01T07:32:31;97250.60;;;9.64;79.46
59939;BME280;45801;51.810;19.444;2023-04-01T07:35:21;97249.98;;;9.69;78.87
59939;BME280;45801;51.810;19.444;2023-04-01T07:38:05;97253.35;;;9.72;78.68
59939;BME280;45801;51.810;19.444;2023-04-01T07:40:49;97252.65;;;9.73;78.88
59939;BME280;45801;51.810;19.444;2023-04-01T07:43:30;97252.73;;;9.78;78.92
59939;BME280;45801;51.810;19.444;2023-04-01T07:46:27;97254.96;;;9.87;78.67
59939;BME280;45801;51.810;19.444;2023-04-01T07:49:14;97257.20;;;9.97;78.10
59939;BME280;45801;51.810;19.444;2023-04-01T07:51:54;97256.24;;;10.05;78.06
59939;BME280;45801;51.810;19.444;2023-04-01T07:54:37;97255.91;;;10.05;78.14
59939;BME280;45801;51.810;19.444;2023-04-01T07:57:19;97255.70;;;10.03;78.28
59939;BME280;45801;51.810;19.444;2023-04-01T07:59:54;97258.07;;;10.10;77.86
59939;BME280;45801;51.810;19.444;2023-04-01T08:05:26;97260.85;;;10.22;77.55
59939;BME280;45801;51.810;19.444;2023-04-01T08:08:19;97260.94;;;10.29;77.40
59939;BME280;45801;51.810;19.444;2023-04-01T08:11:16;97262.36;;;10.31;76.84
59939;BME280;45801;51.810;19.444;2023-04-01T08:14:11;97261.29;;;10.29;76.70
59939;BME280;45801;51.810;19.444;2023-04-01T08:16:48;97263.86;;;10.25;76.99
59939;BME280;45801;51.810;19.444;2023-04-01T08:19:30;97266.85;;;10.27;77.15
59939;BME280;45801;51.810;19.444;2023-04-01T08:22:02;97271.09;;;10.30;77.48
59939;BME280;45801;51.810;19.444;2023-04-01T08:24:35;97273.73;;;10.31;77.58
59939;BME280;45801;51.810;19.444;2023-04-01T08:27:06;97275.41;;;10.26;78.34
59939;BME280;45801;51.810;19.444;2023-04-01T08:30:06;97274.58;;;10.29;78.07
59939;BME280;45801;51.810;19.444;2023-04-01T08:32:47;97277.39;;;10.30;77.97
59939;BME280;45801;51.810;19.444;2023-04-01T08:37:43;97274.73;;;10.38;77.69
59939;BME280;45801;51.810;19.444;2023-04-01T08:43:44;97277.94;;;10.31;78.67
59939;BME280;45801;51.810;19.444;2023-04-01T08:49:10;97275.99;;;10.17;80.20
59939;BME280;45801;51.810;19.444;2023-04-01T08:57:45;97277.51;;;10.11;81.46
59939;BME280;45801;51.810;19.444;2023-04-01T09:00:31;97282.18;;;10.09;82.42
59939;BME280;45801;51.810;19.444;2023-04-01T09:11:52;97276.15;;;10.28;79.69
59939;BME280;45801;51.810;19.444;2023-04-01T09:17:23;97274.52;;;10.35;79.81
59939;BME280;45801;51.810;19.444;2023-04-01T09:20:15;97277.75;;;10.42;79.65
59939;BME280;45801;51.810;19.444;2023-04-01T09:28:18;97277.26;;;10.59;78.56
59939;BME280;45801;51.810;19.444;2023-04-01T09:38:57;97275.79;;;10.84;79.13
59939;BME280;45801;51.810;19.444;2023-04-01T09:41:46;97276.26;;;10.95;78.57
59939;BME280;45801;51.810;19.444;2023-04-01T09:44:31;97272.81;;;11.01;77.53
59939;BME280;45801;51.810;19.444;2023-04-01T09:50:43;97278.59;;;10.99;77.08
59939;BME280;45801;51.810;19.444;2023-04-01T10:07:52;97293.55;;;10.76;78.31
59939;BME280;45801;51.810;19.444;2023-04-01T10:10:37;97297.40;;;10.74;78.59
59939;BME280;45801;51.810;19.444;2023-04-01T10:16:28;97302.88;;;10.49;79.67
59939;BME280;45801;51.810;19.444;2023-04-01T10:19:12;97304.70;;;10.41;79.68
59939;BME280;45801;51.810;19.444;2023-04-01T10:24:47;97303.78;;;10.38;80.30
59939;BME280;45801;51.810;19.444;2023-04-01T10:30:23;97303.14;;;10.42;80.06
59939;BME280;45801;51.810;19.444;2023-04-01T10:33:17;97302.20;;;10.51;79.47
59939;BME280;45801;51.810;19.444;2023-04-01T10:44:56;97300.73;;;10.75;79.81
59939;BME280;45801;51.810;19.444;2023-04-01T11:21:46;97328.31;;;10.40;79.48
59939;BME280;45801;51.810;19.444;2023-04-01T11:24:36;97331.27;;;10.38;79.79
59939;BME280;45801;51.810;19.444;2023-04-01T11:30:02;97332.67;;;10.38;80.40
59939;BME280;45801;51.810;19.444;2023-04-01T11:32:40;97332.41;;;10.46;79.86
59939;BME280;45801;51.810;19.444;2023-04-01T11:38:29;97332.75;;;10.59;80.13
59939;BME280;45801;51.810;19.444;2023-04-01T11:41:23;97331.76;;;10.64;80.52
59939;BME280;45801;51.810;19.444;2023-04-01T11:44:02;97330.45;;;10.71;81.24
59939;BME280;45801;51.810;19.444;2023-04-01T11:59:46;97336.34;;;10.80;77.77
59939;BME280;45801;51.810;19.444;2023-04-01T12:02:29;97341.04;;;10.77;77.50
59939;BME280;45801;51.810;19.444;2023-04-01T12:07:57;97353.09;;;10.61;79.02
59939;BME280;45801;51.810;19.444;2023-04-01T12:13:25;97356.80;;;10.63;78.61
59939;BME280;45801;51.810;19.444;2023-04-01T12:18:50;97361.66;;;10.60;79.23
59939;BME280;45801;51.810;19.444;2023-04-01T12:24:58;97368.40;;;10.41;79.44
59939;BME280;45801;51.810;19.444;2023-04-01T12:27:29;97369.27;;;10.30;79.70
59939;BME280;45801;51.810;19.444;2023-04-01T12:30:14;97373.19;;;10.24;80.26
59939;BME280;45801;51.810;19.444;2023-04-01T12:38:51;97373.92;;;10.26;80.93
59939;BME280;45801;51.810;19.444;2023-04-01T12:44:33;97378.27;;;10.13;81.48
59939;BME280;45801;51.810;19.444;2023-04-01T12:47:13;97377.93;;;10.13;81.94
59939;BME280;45801;51.810;19.444;2023-04-01T12:49:55;97375.13;;;10.25;81.33
59939;BME280;45801;51.810;19.444;2023-04-01T12:52:37;97376.90;;;10.26;81.62
59939;BME280;45801;51.810;19.444;2023-04-01T12:55:39;97383.16;;;10.23;81.20
59939;BME280;45801;51.810;19.444;2023-04-01T12:58:20;97392.08;;;10.23;81.09
59939;BME280;45801;51.810;19.444;2023-04-01T13:03:53;97399.66;;;10.27;79.83
59939;BME280;45801;51.810;19.444;2023-04-01T13:09:27;97410.11;;;10.12;79.37
59939;BME280;45801;51.810;19.444;2023-04-01T13:12:27;97413.95;;;10.12;79.36
59939;BME280;45801;51.810;19.444;2023-04-01T13:15:25;97418.33;;;10.11;79.64
59939;BME280;45801;51.810;19.444;2023-04-01T13:18:25;97423.60;;;10.02;80.29
59939;BME280;45801;51.810;19.444;2023-04-01T13:30:12;97434.83;;;10.04;81.04
59939;BME280;45801;51.810;19.444;2023-04-01T13:35:46;97436.71;;;10.14;81.09
59939;BME280;45801;51.810;19.444;2023-04-01T13:38:48;97438.95;;;10.12;81.02
59939;BME280;45801;51.810;19.444;2023-04-01T13:55:49;97451.98;;;10.27;79.89
59939;BME280;45801;51.810;19.444;2023-04-01T13:58:43;97453.23;;;10.28;79.93
59939;BME280;45801;51.810;19.444;2023-04-01T14:01:25;97456.90;;;10.28;80.01
59939;BME280;45801;51.810;19.444;2023-04-01T14:07:10;97468.93;;;10.25;79.89
59939;BME280;45801;51.810;19.444;2023-04-01T14:17:47;97480.16;;;10.28;80.45
59939;BME280;45801;51.810;19.444;2023-04-01T14:32:16;97487.11;;;10.25;80.31
59939;BME280;45801;51.810;19.444;2023-04-01T14:35:09;97491.86;;;10.26;80.41
59939;BME280;45801;51.810;19.444;2023-04-01T14:46:08;97517.06;;;9.78;82.65
59939;BME280;45801;51.810;19.444;2023-04-01T14:51:39;97530.38;;;9.69;82.32
59939;BME280;45801;51.810;19.444;2023-04-01T14:56:42;97535.99;;;9.71;82.06
59939;BME280;45801;51.810;19.444;2023-04-01T15:02:16;97544.95;;;9.73;81.63
59939;BME280;45801;51.810;19.444;2023-04-01T15:13:13;97563.70;;;9.57;81.07
59939;BME280;45801;51.810;19.444;2023-04-01T15:21:38;97579.45;;;9.41;81.64
59939;BME280;45801;51.810;19.444;2023-04-01T15:24:39;97584.40;;;9.28;81.97
59939;BME280;45801;51.810;19.444;2023-04-01T15:36:16;97607.27;;;9.04;81.89
59939;BME280;45801;51.810;19.444;2023-04-01T15:44:44;97615.71;;;8.98;82.01
59939;BME280;45801;51.810;19.444;2023-04-01T15:55:59;97620.96;;;8.99;81.18
59939;BME280;45801;51.810;19.444;2023-04-01T16:01:39;97631.42;;;9.06;81.32
59939;BME280;45801;51.810;19.444;2023-04-01T16:13:24;97650.80;;;9.06;81.04
59939;BME280;45801;51.810;19.444;2023-04-01T16:16:14;97657.45;;;9.07;80.95
59939;BME280;45801;51.810;19.444;2023-04-01T16:21:35;97663.20;;;8.98;80.95
59939;BME280;45801;51.810;19.444;2023-04-01T16:24:22;97667.58;;;8.99;80.95
59939;BME280;45801;51.810;19.444;2023-04-01T16:26:57;97673.88;;;8.92;80.90
59939;BME280;45801;51.810;19.444;2023-04-01T16:29:36;97674.46;;;8.88;80.85
59939;BME280;45801;51.810;19.444;2023-04-01T16:44:19;97699.59;;;8.80;80.87
59939;BME280;45801;51.810;19.444;2023-04-01T16:47:11;97703.40;;;8.86;81.05
59939;BME280;45801;51.810;19.444;2023-04-01T16:49:46;97701.86;;;8.87;80.94
59939;BME280;45801;51.810;19.444;2023-04-01T16:52:30;97708.38;;;8.90;80.60
59939;BME280;45801;51.810;19.444;2023-04-01T16:55:04;97714.86;;;8.90;80.58
59939;BME280;45801;51.810;19.444;2023-04-01T16:57:51;97719.83;;;8.87;80.45
59939;BME280;45801;51.810;19.444;2023-04-01T17:00:28;97726.73;;;8.84;80.58
59939;BME280;45801;51.810;19.444;2023-04-01T17:03:01;97731.82;;;8.84;80.59
59939;BME280;45801;51.810;19.444;2023-04-01T17:09:41;97741.67;;;8.73;80.48
59939;BME280;45801;51.810;19.444;2023-04-01T17:14:45;97747.89;;;8.64;80.81
59939;BME280;45801;51.810;19.444;2023-04-01T17:23:08;97759.88;;;8.50;81.20
59939;BME280;45801;51.810;19.444;2023-04-01T17:28:34;97766.45;;;8.48;81.16
59939;BME280;45801;51.810;19.444;2023-04-01T17:41:47;97783.16;;;8.46;81.36
59939;BME280;45801;51.810;19.444;2023-04-01T17:47:14;97790.21;;;8.49;80.94
59939;BME280;45801;51.810;19.444;2023-04-01T17:52:39;97795.30;;;8.57;80.71
59939;BME280;45801;51.810;19.444;2023-04-01T17:58:22;97809.48;;;8.57;80.52
59939;BME280;45801;51.810;19.444;2023-04-01T18:06:09;97826.80;;;8.47;80.73
59939;BME280;45801;51.810;19.444;2023-04-01T18:19:46;97842.56;;;8.49;80.51
59939;BME280;45801;51.810;19.444;2023-04-01T18:22:19;97846.59;;;8.50;80.50
59939;BME280;45801;51.810;19.444;2023-04-01T18:25:02;97852.48;;;8.54;80.45
59939;BME280;45801;51.810;19.444;2023-04-01T18:27:38;97855.01;;;8.57;80.15
59939;BME280;45801;51.810;19.444;2023-04-01T18:35:21;97865.86;;;8.58;79.99
59939;BME280;45801;51.810;19.444;2023-04-01T18:37:53;97868.29;;;8.52;80.19
59939;BME280;45801;51.810;19.444;2023-04-01T18:40:47;97874.63;;;8.48;80.11
59939;BME280;45801;51.810;19.444;2023-04-01T18:46:50;97884.96;;;8.38;80.52
59939;BME280;45801;51.810;19.444;2023-04-01T18:49:40;97885.92;;;8.36;80.55
59939;BME280;45801;51.810;19.444;2023-04-01T18:52:26;97891.95;;;8.27;80.69
59939;BME280;45801;51.810;19.444;2023-04-01T18:57:52;97898.29;;;8.29;80.82
59939;BME280;45801;51.810;19.444;2023-04-01T19:00:25;97896.79;;;8.31;80.72
59939;BME280;45801;51.810;19.444;2023-04-01T19:02:56;97895.92;;;8.37;80.52
59939;BME280;45801;51.810;19.444;2023-04-01T19:05:29;97899.22;;;8.37;80.21
59939;BME280;45801;51.810;19.444;2023-04-01T19:08:19;97905.00;;;8.37;80.16
59939;BME280;45801;51.810;19.444;2023-04-01T19:11:03;97907.42;;;8.36;80.27
59939;BME280;45801;51.810;19.444;2023-04-01T19:16:42;97911.67;;;8.44;79.94
59939;BME280;45801;51.810;19.444;2023-04-01T19:27:37;97925.92;;;8.59;79.40
59939;BME280;45801;51.810;19.444;2023-04-01T19:33:48;97934.54;;;8.66;79.32
59939;BME280;45801;51.810;19.444;2023-04-01T19:44:53;97952.62;;;8.47;79.08
59939;BME280;45801;51.810;19.444;2023-04-01T19:50:31;97957.45;;;8.52;78.94
59939;BME280;45801;51.810;19.444;2023-04-01T19:53:14;97964.46;;;8.52;78.58
59939;BME280;45801;51.810;19.444;2023-04-01T19:56:07;97968.36;;;8.54;78.54
59939;BME280;45801;51.810;19.444;2023-04-01T19:58:49;97968.66;;;8.42;78.92
59939;BME280;45801;51.810;19.444;2023-04-01T20:04:41;97978.20;;;8.29;79.10
59939;BME280;45801;51.810;19.444;2023-04-01T20:10:09;97989.33;;;8.28;79.18
59939;BME280;45801;51.810;19.444;2023-04-01T20:15:27;97990.40;;;8.24;79.39
59939;BME280;45801;51.810;19.444;2023-04-01T20:17:58;97992.08;;;8.27;79.11
59939;BME280;45801;51.810;19.444;2023-04-01T20:20:28;97998.85;;;8.26;78.96
59939;BME280;45801;51.810;19.444;2023-04-01T20:23:16;98001.93;;;8.25;78.94
59939;BME280;45801;51.810;19.444;2023-04-01T20:25:51;98001.70;;;8.23;78.76
59939;BME280;45801;51.810;19.444;2023-04-01T20:28:29;98004.70;;;8.18;78.72
59939;BME280;45801;51.810;19.444;2023-04-01T20:31:27;98010.86;;;8.04;78.84
59939;BME280;45801;51.810;19.444;2023-04-01T20:40:26;98015.80;;;7.81;79.17
59939;BME280;45801;51.810;19.444;2023-04-01T20:45:51;98021.36;;;7.74;79.19
59939;BME280;45801;51.810;19.444;2023-04-01T20:50:59;98021.59;;;7.81;79.24
59939;BME280;45801;51.810;19.444;2023-04-01T20:57:00;98023.88;;;7.87;79.17
59939;BME280;45801;51.810;19.444;2023-04-01T21:00:02;98022.23;;;7.95;79.21
59939;BME280;45801;51.810;19.444;2023-04-01T21:05:49;98027.58;;;8.03;78.45